createdAt,value
2022-09-12T00:02:14.661Z,16.17
2022-09-12T00:04:44.431Z,17.43
2022-09-12T00:07:14.171Z,15.47
2022-09-12T00:09:43.922Z,15.90
2022-09-12T00:12:13.657Z,14.40
2022-09-12T00:14:43.428Z,16.50
2022-09-12T00:17:13.253Z,16.77
2022-09-12T00:19:43.005Z,15.90
2022-09-12T00:22:13.140Z,16.23
2022-09-12T00:24:42.895Z,16.70
2022-09-12T00:27:12.643Z,17.13
2022-09-12T00:29:42.681Z,17.60
2022-09-12T00:32:12.207Z,16.80
2022-09-12T00:34:41.952Z,16.93
2022-09-12T00:37:11.690Z,18.00
2022-09-12T00:39:41.593Z,18.60
2022-09-12T00:42:13.214Z,19.00
2022-09-12T00:44:45.688Z,19.07
2022-09-12T00:47:23.751Z,17.95
2022-09-12T00:50:02.459Z,19.47
2022-09-12T00:52:38.207Z,18.67
2022-09-12T00:55:13.936Z,17.07
2022-09-12T00:57:58.737Z,18.17
2022-09-12T01:00:30.028Z,18.15
2022-09-12T01:03:02.834Z,18.87
2022-09-12T01:05:35.488Z,16.33
2022-09-12T01:08:07.118Z,17.70
2022-09-12T01:10:39.082Z,18.53
2022-09-12T01:13:11.138Z,18.17
2022-09-12T01:15:41.411Z,20.10
2022-09-12T01:18:14.885Z,18.80
2022-09-12T01:21:05.743Z,19.17
2022-09-12T01:23:41.516Z,18.33
2022-09-12T01:26:38.076Z,18.68
2022-09-12T01:29:39.158Z,18.83
2022-09-12T01:32:28.666Z,16.80
2022-09-12T01:35:04.347Z,16.83
2022-09-12T01:37:45.688Z,18.73
2022-09-12T01:40:30.315Z,17.67
2022-09-12T01:43:26.671Z,17.37
2022-09-12T01:46:02.455Z,18.82
2022-09-12T01:48:35.812Z,18.30
2022-09-12T01:51:24.531Z,17.57
2022-09-12T01:53:57.347Z,17.90
2022-09-12T01:56:29.653Z,16.73
2022-09-12T01:59:08.453Z,17.42
2022-09-12T02:01:49.039Z,17.52
2022-09-12T02:04:31.049Z,17.90
2022-09-12T02:07:10.775Z,17.17
2022-09-12T02:09:50.002Z,17.07
2022-09-12T02:12:22.519Z,16.87
2022-09-12T02:14:55.488Z,17.43
2022-09-12T02:17:27.159Z,18.87
2022-09-12T02:20:02.642Z,18.80
2022-09-12T02:22:34.672Z,16.90
2022-09-12T02:25:08.497Z,18.20
2022-09-12T02:27:46.982Z,17.77
2022-09-12T02:30:19.404Z,17.12
2022-09-12T02:33:04.083Z,18.67
2022-09-12T02:35:45.787Z,19.75
2022-09-12T02:38:34.558Z,19.67
2022-09-12T02:41:04.609Z,17.80
2022-09-12T02:43:35.180Z,19.48
2022-09-12T02:46:12.318Z,21.17
2022-09-12T02:48:44.476Z,21.30
2022-09-12T02:51:14.560Z,19.37
2022-09-12T02:53:45.061Z,20.43
2022-09-12T02:56:17.909Z,18.67
2022-09-12T02:58:48.573Z,19.90
2022-09-12T03:01:36.193Z,21.97
2022-09-12T03:04:17.765Z,19.60
2022-09-12T03:06:59.523Z,20.25
2022-09-12T03:09:46.932Z,20.80
2022-09-12T03:12:40.352Z,20.83
2022-09-12T03:15:40.560Z,20.33
2022-09-12T03:18:31.240Z,19.32
2022-09-12T03:21:09.795Z,20.33
2022-09-12T03:24:15.752Z,21.17
2022-09-12T03:27:00.717Z,23.22
2022-09-12T03:29:31.529Z,24.55
2022-09-12T03:32:01.265Z,25.57
2022-09-12T03:34:31.006Z,26.07
2022-09-12T03:37:00.819Z,27.77
2022-09-12T03:39:30.963Z,28.80
2022-09-12T03:42:00.524Z,29.40
2022-09-12T03:44:30.559Z,32.38
2022-09-12T03:47:00.604Z,31.75
2022-09-12T03:49:30.360Z,33.57
2022-09-12T03:52:00.094Z,31.40
2022-09-12T03:54:29.836Z,34.00
2022-09-12T03:56:59.590Z,31.80
2022-09-12T03:59:29.661Z,32.63
2022-09-12T04:01:59.542Z,31.67
2022-09-12T04:04:29.661Z,29.92
2022-09-12T04:06:59.542Z,32.87
2022-09-12T04:09:29.848Z,30.97
2022-09-12T04:11:59.886Z,31.73
2022-09-12T04:14:29.635Z,33.27
2022-09-12T04:16:59.208Z,32.10
2022-09-12T04:19:29.196Z,35.07
2022-09-12T04:21:59.381Z,36.17
2022-09-12T04:24:29.120Z,38.83
2022-09-12T04:26:58.932Z,38.07
2022-09-12T04:29:29.426Z,38.67
2022-09-12T04:31:59.173Z,37.80
2022-09-12T04:34:32.088Z,39.42
2022-09-12T04:37:01.824Z,38.33
2022-09-12T04:39:31.564Z,41.00
2022-09-12T04:42:01.330Z,40.67
2022-09-12T04:44:31.535Z,40.47
2022-09-12T04:47:01.592Z,39.18
2022-09-12T04:49:31.712Z,40.95
2022-09-12T04:52:01.648Z,41.47
2022-09-12T04:54:31.383Z,41.65
2022-09-12T04:57:01.255Z,40.47
2022-09-12T04:59:31.015Z,42.27
2022-09-12T05:02:00.869Z,40.13
2022-09-12T05:04:31.546Z,43.43
2022-09-12T05:07:01.574Z,42.67
2022-09-12T05:09:31.789Z,41.77
2022-09-12T05:12:04.613Z,39.87
2022-09-12T05:14:33.325Z,41.97
2022-09-12T05:17:04.110Z,42.13
2022-09-12T05:19:34.159Z,41.67
2022-09-12T05:22:06.626Z,40.50
2022-09-12T05:24:38.633Z,41.83
2022-09-12T05:27:08.391Z,39.87
2022-09-12T05:29:38.138Z,38.73
2022-09-12T05:32:09.704Z,41.13
2022-09-12T05:34:41.141Z,39.73
2022-09-12T05:37:10.895Z,38.77
2022-09-12T05:39:40.696Z,40.03
2022-09-12T05:42:12.097Z,41.48
2022-09-12T05:44:41.840Z,40.13
2022-09-12T05:47:13.288Z,38.55
2022-09-12T05:49:44.674Z,38.87
2022-09-12T05:52:14.121Z,39.60
2022-09-12T05:54:44.032Z,40.63
2022-09-12T05:57:13.768Z,39.80
2022-09-12T05:59:43.335Z,41.30
2022-09-12T06:02:13.205Z,39.85
2022-09-12T06:04:43.475Z,39.53
2022-09-12T06:07:14.420Z,40.50
2022-09-12T06:09:44.166Z,37.73
2022-09-12T06:12:13.898Z,40.07
2022-09-12T06:14:43.640Z,39.50
2022-09-12T06:17:14.138Z,39.48
2022-09-12T06:19:43.874Z,41.33
2022-09-12T06:22:13.906Z,38.57
2022-09-12T06:24:43.680Z,38.50
2022-09-12T06:27:13.228Z,39.60
2022-09-12T06:29:42.972Z,39.93
2022-09-12T06:32:12.714Z,40.40
2022-09-12T06:34:42.823Z,39.60
2022-09-12T06:37:12.637Z,40.47
2022-09-12T06:39:42.731Z,39.33
2022-09-12T06:42:13.836Z,40.70
2022-09-12T06:44:45.348Z,40.90
2022-09-12T06:47:15.108Z,40.40
2022-09-12T06:49:44.850Z,40.37
2022-09-12T06:52:14.304Z,40.93
2022-09-12T06:54:44.052Z,40.53
2022-09-12T06:57:13.804Z,39.83
2022-09-12T06:59:43.543Z,39.23
2022-09-12T07:02:13.429Z,39.42
2022-09-12T07:04:43.343Z,40.20
2022-09-12T07:07:13.099Z,41.03
2022-09-12T07:09:42.853Z,41.77
2022-09-12T07:12:12.527Z,42.15
2022-09-12T07:14:42.282Z,41.47
2022-09-12T07:17:12.423Z,42.03
2022-09-12T07:19:42.131Z,41.70
2022-09-12T07:22:12.239Z,37.55
2022-09-12T07:24:41.992Z,39.00
2022-09-12T07:27:11.737Z,38.37
2022-09-12T07:29:41.212Z,36.15
2022-09-12T07:32:12.017Z,35.50
2022-09-12T07:34:41.828Z,34.50
2022-09-12T07:37:11.649Z,34.33
2022-09-12T07:39:41.766Z,35.15
2022-09-12T07:42:12.522Z,33.46
2022-09-12T07:44:42.335Z,31.87
2022-09-12T07:47:12.092Z,31.50
2022-09-12T07:49:41.850Z,31.07
2022-09-12T07:52:11.774Z,29.50
2022-09-12T07:54:41.529Z,28.60
2022-09-12T07:57:11.331Z,28.80
2022-09-12T07:59:52.606Z,28.70
2022-09-12T08:02:17.272Z,27.90
2022-09-12T08:04:45.998Z,27.13
2022-09-12T08:07:15.823Z,26.73
2022-09-12T08:09:46.111Z,28.13
2022-09-12T08:12:17.682Z,26.17
2022-09-12T08:14:48.153Z,24.37
2022-09-12T08:17:17.927Z,24.83
2022-09-12T08:19:48.151Z,24.53
2022-09-12T08:22:19.535Z,24.47
2022-09-12T08:24:50.785Z,22.98
2022-09-12T08:27:20.623Z,23.13
2022-09-12T08:29:50.389Z,23.97
2022-09-12T08:32:20.297Z,23.92
2022-09-12T08:34:50.064Z,24.67
2022-09-12T08:37:19.952Z,23.63
2022-09-12T08:39:49.781Z,24.77
2022-09-12T08:42:23.939Z,23.70
2022-09-12T08:45:05.210Z,23.97
2022-09-12T08:47:40.560Z,26.17
2022-09-12T08:50:18.625Z,24.52
2022-09-12T08:56:03.782Z,23.07
2022-09-12T08:58:36.647Z,23.57
2022-09-12T09:01:18.252Z,24.37
2022-09-12T09:04:03.198Z,24.17
2022-09-12T09:06:59.180Z,22.70
2022-09-12T09:09:55.673Z,22.70
2022-09-12T09:12:43.122Z,23.10
2022-09-12T09:15:27.794Z,19.85
2022-09-12T09:18:04.119Z,19.67
2022-09-12T09:20:43.506Z,20.88
2022-09-12T09:23:37.582Z,20.10
2022-09-12T09:26:11.441Z,19.57
2022-09-12T09:28:53.170Z,18.50
2022-09-12T09:31:25.365Z,18.67
2022-09-12T09:33:56.148Z,16.20
2022-09-12T09:36:28.726Z,18.10
2022-09-12T09:39:18.624Z,17.30
2022-09-12T09:42:14.802Z,15.80
2022-09-12T09:44:47.256Z,15.67
2022-09-12T09:47:19.610Z,14.97
2022-09-12T09:49:49.366Z,14.90
2022-09-12T09:52:22.152Z,14.20
2022-09-12T09:54:55.056Z,14.83
2022-09-12T09:57:40.861Z,12.53
2022-09-12T10:00:25.470Z,13.96
2022-09-12T10:03:31.365Z,12.33
2022-09-12T10:06:08.888Z,12.35
2022-09-12T10:08:39.235Z,10.40
2022-09-12T10:11:17.626Z,9.83
2022-09-12T10:13:57.738Z,9.20
2022-09-12T10:16:30.505Z,10.13
2022-09-12T10:19:02.674Z,10.03
2022-09-12T10:21:41.632Z,10.13
2022-09-12T10:24:43.566Z,10.40
2022-09-12T10:27:16.917Z,7.60
2022-09-12T10:29:52.446Z,8.67
2022-09-12T10:32:31.049Z,9.20
2022-09-12T10:35:03.967Z,7.87
2022-09-12T10:37:41.128Z,8.67
2022-09-12T10:40:24.893Z,8.10
2022-09-12T10:42:57.079Z,7.83
2022-09-12T10:45:32.679Z,6.97
2022-09-12T10:48:07.742Z,7.40
2022-09-12T10:50:42.961Z,7.90
2022-09-12T10:53:34.355Z,7.00
2022-09-12T10:56:04.657Z,5.73
2022-09-12T10:58:42.689Z,4.78
2022-09-12T11:01:24.156Z,4.73
2022-09-12T11:04:21.087Z,6.70
2022-09-12T11:07:11.851Z,8.30
2022-09-12T11:09:47.058Z,7.80
2022-09-12T11:12:25.408Z,8.67
2022-09-12T11:15:17.066Z,8.37
2022-09-12T11:17:49.848Z,7.57
2022-09-12T11:20:34.226Z,5.50
2022-09-12T11:23:22.062Z,5.70
2022-09-12T11:26:03.571Z,5.03
2022-09-12T11:28:47.094Z,5.83
2022-09-12T11:31:45.988Z,4.73
2022-09-12T11:34:18.758Z,6.30
2022-09-12T11:36:54.352Z,5.83
2022-09-12T11:39:26.767Z,5.00
2022-09-12T11:42:02.375Z,4.30
2022-09-12T11:44:40.549Z,5.17
2022-09-12T11:47:13.453Z,5.70
2022-09-12T11:49:49.085Z,4.60
2022-09-12T11:52:21.605Z,4.33
2022-09-12T11:55:03.777Z,4.75
2022-09-12T11:57:44.489Z,4.20
2022-09-12T12:00:20.418Z,4.20
2022-09-12T12:03:11.203Z,3.70
2022-09-12T12:05:58.210Z,3.55
2022-09-12T12:08:30.989Z,4.60
2022-09-12T12:11:05.588Z,4.17
2022-09-12T12:13:39.296Z,4.00
2022-09-12T12:16:26.060Z,4.42
2022-09-12T12:18:58.587Z,4.33
2022-09-12T12:21:49.286Z,4.30
2022-09-12T12:24:24.414Z,4.03
2022-09-12T12:27:06.082Z,5.13
2022-09-12T12:29:45.838Z,4.55
2022-09-12T12:32:21.003Z,4.80
2022-09-12T12:34:50.612Z,4.87
2022-09-12T12:37:23.391Z,3.87
2022-09-12T12:40:00.227Z,4.33
2022-09-12T12:42:38.891Z,3.77
2022-09-12T12:45:12.090Z,3.97
2022-09-12T12:47:45.249Z,4.20
2022-09-12T12:50:23.282Z,3.30
2022-09-12T12:52:56.165Z,4.17
2022-09-12T12:55:40.649Z,3.60
2022-09-12T12:58:31.641Z,4.28
2022-09-12T13:01:16.778Z,4.57
2022-09-12T13:03:49.933Z,3.90
2022-09-12T13:06:28.304Z,4.10
2022-09-12T13:09:06.550Z,3.70
2022-09-12T13:11:42.023Z,3.70
2022-09-12T13:14:46.726Z,3.40
2022-09-12T13:17:22.621Z,3.47
2022-09-12T13:20:16.940Z,4.03
2022-09-12T13:22:26.263Z,3.77
2022-09-12T13:24:56.009Z,3.70
2022-09-12T13:27:26.885Z,3.60
2022-09-12T13:30:11.754Z,3.03
2022-09-12T13:32:42.949Z,2.83
2022-09-12T13:35:34.550Z,2.58
2022-09-12T13:38:18.674Z,2.58
2022-09-12T13:41:24.020Z,2.17
2022-09-12T13:43:53.906Z,2.50
2022-09-12T13:46:30.261Z,2.60
2022-09-12T13:49:02.839Z,2.40
2022-09-12T13:51:33.667Z,2.30
2022-09-12T13:54:06.410Z,2.40
2022-09-12T13:56:39.206Z,2.47
2022-09-12T13:59:13.328Z,2.47
2022-09-12T14:01:45.161Z,3.00
2022-09-12T14:04:41.317Z,2.50
2022-09-12T14:07:20.124Z,2.57
2022-09-12T14:10:00.834Z,2.77
2022-09-12T14:12:40.990Z,2.95
2022-09-12T14:15:23.674Z,2.27
2022-09-12T14:17:56.540Z,3.60
2022-09-12T14:20:26.104Z,3.90
2022-09-12T14:22:56.105Z,2.87
2022-09-12T14:25:27.763Z,2.83
2022-09-12T14:27:59.004Z,2.50
2022-09-12T14:30:37.143Z,2.65
2022-09-12T14:33:16.007Z,3.50
2022-09-12T14:35:53.717Z,3.13
2022-09-12T14:38:29.265Z,2.93
2022-09-12T14:43:36.943Z,3.20
2022-09-12T14:46:21.368Z,2.70
2022-09-12T14:48:54.318Z,3.03
2022-09-12T14:51:29.743Z,2.70
2022-09-12T14:53:59.567Z,2.40
2022-09-12T14:56:46.667Z,2.15
2022-09-12T14:59:36.261Z,3.40
2022-09-12T15:02:16.854Z,3.83
2022-09-12T15:04:48.941Z,4.10
2022-09-12T15:07:24.696Z,3.50
2022-09-12T15:09:54.436Z,3.70
2022-09-12T15:12:25.119Z,3.95
2022-09-12T15:14:57.903Z,4.07
2022-09-12T15:17:27.637Z,2.93
2022-09-12T15:19:57.679Z,3.20
2022-09-12T15:22:27.674Z,3.10
2022-09-12T15:24:57.484Z,3.37
2022-09-12T15:27:27.475Z,3.40
2022-09-12T15:29:57.288Z,3.33
2022-09-12T15:32:29.448Z,3.60
2022-09-12T15:34:59.213Z,4.10
2022-09-12T15:37:28.941Z,4.20
2022-09-12T15:39:58.734Z,3.63
2022-09-12T15:42:31.272Z,4.27
2022-09-12T15:45:02.716Z,4.27
2022-09-12T15:47:32.713Z,3.80
2022-09-12T15:50:02.452Z,4.17
2022-09-12T15:52:33.048Z,3.90
2022-09-12T15:55:03.192Z,3.73
2022-09-12T15:57:32.925Z,3.50
2022-09-12T16:00:02.791Z,3.60
2022-09-12T16:02:34.276Z,3.53
2022-09-12T16:05:04.674Z,3.33
2022-09-12T16:07:34.449Z,3.30
2022-09-12T16:10:06.695Z,3.02
2022-09-12T16:12:36.422Z,3.03
2022-09-12T16:15:08.232Z,2.90
2022-09-12T16:17:37.969Z,2.60
2022-09-12T16:20:10.000Z,2.63
2022-09-12T16:22:40.184Z,2.40
2022-09-12T16:25:10.807Z,2.47
2022-09-12T16:27:40.602Z,2.50
2022-09-12T16:30:13.335Z,2.64
2022-09-12T16:32:43.060Z,2.97
2022-09-12T16:35:12.829Z,2.80
2022-09-12T16:37:42.430Z,2.70
2022-09-12T16:40:15.736Z,2.82
2022-09-12T16:42:48.726Z,5.47
2022-09-12T16:45:18.166Z,2.90
2022-09-12T16:47:47.907Z,2.80
2022-09-12T16:50:17.408Z,2.50
2022-09-12T16:52:47.140Z,2.70
2022-09-12T16:55:16.987Z,2.62
2022-09-12T16:57:48.460Z,2.40
2022-09-12T17:00:18.176Z,2.73
2022-09-12T17:02:48.336Z,3.13
2022-09-12T17:05:18.157Z,2.90
2022-09-12T17:07:47.969Z,2.20
2022-09-12T17:10:17.961Z,2.40
2022-09-12T17:12:47.708Z,2.43
2022-09-12T17:15:17.790Z,2.08
2022-09-12T17:17:47.679Z,2.00
2022-09-12T17:20:17.576Z,2.25
2022-09-12T17:22:47.292Z,1.93
2022-09-12T17:25:17.141Z,2.20
2022-09-12T17:27:46.852Z,2.17
2022-09-12T17:30:16.836Z,1.67
2022-09-12T17:32:46.579Z,1.77
2022-09-12T17:35:16.711Z,2.33
2022-09-12T17:37:46.724Z,2.20
2022-09-12T17:40:16.350Z,2.10
2022-09-12T17:42:46.134Z,2.33
2022-09-12T17:45:18.421Z,2.00
2022-09-12T17:47:47.597Z,2.10
2022-09-12T17:50:39.299Z,2.00
2022-09-12T17:52:51.830Z,2.40
2022-09-12T17:55:21.418Z,2.60
2022-09-12T17:57:51.134Z,1.60
2022-09-12T18:00:22.427Z,2.00
2022-09-12T18:02:52.199Z,2.10
2022-09-12T18:05:21.780Z,1.97
2022-09-12T18:07:52.882Z,2.30
2022-09-12T18:10:22.784Z,2.20
2022-09-12T18:12:52.673Z,2.57
2022-09-12T18:15:22.581Z,2.00
2022-09-12T18:17:52.602Z,2.40
2022-09-12T18:20:22.057Z,2.17
2022-09-12T18:22:51.800Z,2.50
2022-09-12T18:25:21.598Z,1.97
2022-09-12T18:27:51.393Z,2.53
2022-09-12T18:30:22.570Z,2.33
2022-09-12T18:32:52.607Z,2.40
2022-09-12T18:35:22.040Z,2.22
2022-09-12T18:37:51.769Z,2.47
2022-09-12T18:40:21.308Z,2.30
2022-09-12T18:42:51.490Z,2.53
2022-09-12T18:45:21.505Z,2.30
2022-09-12T18:47:51.267Z,2.40
2022-09-12T18:50:20.986Z,2.57
2022-09-12T18:52:55.659Z,2.10
2022-09-12T18:55:24.432Z,2.42
2022-09-12T18:57:55.747Z,3.37
2022-09-12T19:00:25.515Z,2.40
2022-09-12T19:02:55.225Z,2.87
2022-09-12T19:05:25.932Z,2.70
2022-09-12T19:07:55.662Z,2.90
2022-09-12T19:10:25.765Z,2.65
2022-09-12T19:12:55.571Z,2.65
2022-09-12T19:15:25.286Z,3.53
2022-09-12T19:17:55.012Z,3.23
2022-09-12T19:20:24.457Z,3.00
2022-09-12T19:22:54.188Z,2.77
2022-09-12T19:25:24.012Z,2.83
2022-09-12T19:27:53.728Z,3.40
2022-09-12T19:30:23.811Z,3.42
2022-09-12T19:32:53.532Z,3.07
2022-09-12T19:35:22.967Z,3.33
2022-09-12T19:37:52.775Z,3.97
2022-09-12T19:40:22.622Z,4.60
2022-09-12T19:42:52.346Z,5.10
2022-09-12T19:45:22.069Z,5.90
2022-09-12T19:47:51.869Z,5.70
2022-09-12T19:50:21.573Z,7.08
2022-09-12T19:52:51.679Z,7.08
2022-09-12T19:55:22.162Z,6.20
2022-09-12T19:57:51.882Z,6.53
2022-09-12T20:00:22.288Z,6.10
2022-09-12T20:02:53.248Z,5.47
2022-09-12T20:05:22.765Z,5.87
2022-09-12T20:07:52.213Z,5.80
2022-09-12T20:10:21.956Z,4.75
2022-09-12T20:12:51.749Z,5.83
2022-09-12T20:15:21.184Z,5.67
2022-09-12T20:17:56.130Z,5.53
2022-09-12T20:20:26.506Z,5.33
2022-09-12T20:22:56.237Z,5.20
2022-09-12T20:25:25.676Z,5.78
2022-09-12T20:27:59.920Z,5.90
2022-09-12T20:30:27.232Z,6.15
2022-09-12T20:32:56.954Z,6.80
2022-09-12T20:35:26.691Z,5.53
2022-09-12T20:37:56.706Z,6.30
2022-09-12T20:40:26.510Z,6.67
2022-09-12T20:42:56.265Z,5.40
2022-09-12T20:45:25.760Z,5.72
2022-09-12T20:47:55.766Z,5.67
2022-09-12T20:50:25.936Z,4.72
2022-09-12T20:52:55.661Z,5.47
2022-09-12T20:55:26.433Z,5.67
2022-09-12T20:57:56.165Z,6.50
2022-09-12T21:00:25.929Z,6.53
2022-09-12T21:02:55.768Z,6.27
2022-09-12T21:05:25.236Z,8.43
2022-09-12T21:07:54.982Z,6.33
2022-09-12T21:10:24.730Z,7.20
2022-09-12T21:12:54.626Z,6.70
2022-09-12T21:15:24.053Z,7.45
2022-09-12T21:17:53.942Z,6.10
2022-09-12T21:20:23.587Z,6.77
2022-09-12T21:22:53.320Z,6.43
2022-09-12T21:25:22.763Z,6.87
2022-09-12T21:27:52.508Z,6.83
2022-09-12T21:30:22.543Z,6.28
2022-09-12T21:32:52.264Z,6.50
2022-09-12T21:35:22.010Z,5.95
2022-09-12T21:37:53.173Z,6.10
2022-09-12T21:40:23.073Z,6.67
2022-09-12T21:42:52.799Z,6.07
2022-09-12T21:45:22.236Z,6.70
2022-09-12T21:47:51.973Z,6.40
2022-09-12T21:50:21.702Z,6.15
2022-09-12T21:52:51.745Z,5.55
2022-09-12T21:55:22.862Z,6.03
2022-09-12T21:57:52.607Z,6.97
2022-09-12T22:00:22.644Z,7.60
2022-09-12T22:02:53.660Z,7.87
2022-09-12T22:05:24.529Z,6.10
2022-09-12T22:07:54.587Z,7.53
2022-09-12T22:10:25.005Z,8.08
2022-09-12T22:12:54.752Z,7.57
2022-09-12T22:15:40.232Z,8.03
2022-09-12T22:17:56.678Z,6.87
2022-09-12T22:20:26.509Z,7.55
2022-09-12T22:23:13.686Z,8.17
2022-09-12T22:25:43.482Z,9.20
2022-09-12T22:28:13.674Z,8.77
2022-09-12T22:30:46.453Z,8.87
2022-09-12T22:33:16.270Z,9.07
2022-09-12T22:35:46.000Z,8.73
2022-09-12T22:38:15.742Z,8.50
2022-09-12T22:40:45.479Z,9.50
2022-09-12T22:43:15.676Z,9.27
2022-09-12T22:45:45.413Z,9.07
2022-09-12T22:48:16.797Z,8.73
2022-09-12T22:53:23.799Z,8.55
2022-09-12T22:55:53.611Z,9.03
2022-09-12T22:58:23.056Z,9.43
2022-09-12T23:00:52.959Z,8.87
2022-09-12T23:03:22.787Z,7.70
2022-09-12T23:05:52.578Z,8.13
2022-09-12T23:08:22.191Z,8.87
2022-09-12T23:10:51.680Z,8.63
2022-09-12T23:13:21.441Z,7.97
2022-09-12T23:15:56.235Z,8.15
2022-09-12T23:18:26.079Z,9.23
2022-09-12T23:21:03.213Z,8.05
2022-09-12T23:23:33.655Z,9.97
2022-09-12T23:26:15.122Z,8.93
2022-09-12T23:28:50.639Z,10.13
2022-09-12T23:31:21.451Z,9.90
2022-09-12T23:33:56.260Z,8.90
2022-09-12T23:36:27.107Z,8.97
2022-09-12T23:38:57.288Z,9.20
2022-09-12T23:41:27.159Z,9.60
2022-09-12T23:43:57.237Z,9.03
2022-09-12T23:46:27.356Z,9.28
2022-09-12T23:48:57.111Z,8.47
2022-09-12T23:51:27.069Z,8.50
2022-09-12T23:53:56.818Z,9.13
2022-09-12T23:56:26.808Z,9.55
2022-09-12T23:58:56.540Z,9.63
